Baker, Nevada
Current Conditions -  °F | °C
As of 10:53 AM on Friday 24 Oct 2014 (Local Time) from KELY Reporting Station
Clear Clear  
Wind Chill: 69°   Ceiling: Unl
Heat Index: 69°   Visibility: 10mi
Dew Point: 25°   Wind: 10mph
Humidity: 19%   Direction: 150°SSE
Pressure: 30.25"   Gusts: 21mph
Location:  39.01°N, 114.13°W
Report Text: KELY 241753Z AUTO 15009G18KT 10SM CLR 21/M04 A3025 RMK AO2 SLP161 T02061039 10206 20089 58003
Loading
Personal Weather Stations






























Interactive Weather Map
Tropical Storm Tracking
New forecast layout! Learn more

10-Day Weather Forecast

Advertisements
Track Severe Weather on mobile